Time;durP1;ratioP1;P1;durP2;ratioP2;P2;SDS_P1;SDS_P2;PMS_P1;PMS_P2;Temp;Humidity;BMP_temperature;BMP_pressure;BME280_temperature;BME280_humidity;BME280_pressure;Samples;Min_cycle;Max_cycle;Signal;HPM_P1;HPM_P2
2023/10/31 00:01:39;;;;;;;11.25;4.30;;;11.10;99.90;;;;;;5025307;28;20046;-82
2023/10/31 00:04:06;;;;;;;11.00;4.68;;;11.10;99.90;;;;;;5048884;28;20103;-82
2023/10/31 00:06:32;;;;;;;8.23;3.92;;;11.10;99.90;;;;;;5045038;28;20073;-82
2023/10/31 00:08:59;;;;;;;10.52;4.13;;;11.10;99.90;;;;;;5033342;28;20075;-82
2023/10/31 00:11:25;;;;;;;9.85;3.65;;;11.30;99.90;;;;;;5051375;28;20038;-82
2023/10/31 00:13:52;;;;;;;7.32;3.45;;;11.10;99.90;;;;;;5047118;28;20120;-82
2023/10/31 00:16:19;;;;;;;11.50;3.78;;;11.10;99.90;;;;;;5052301;28;20048;-82
2023/10/31 00:18:45;;;;;;;11.25;3.60;;;11.10;99.90;;;;;;5064021;28;20040;-82
2023/10/31 00:21:12;;;;;;;9.38;3.15;;;11.10;99.90;;;;;;5055930;28;20491;-82
2023/10/31 00:23:46;;;;;;;8.23;3.33;;;11.00;99.90;;;;;;5044958;28;20091;-82
2023/10/31 00:26:12;;;;;;;10.80;3.67;;;11.00;99.90;;;;;;5066060;28;20033;-82
2023/10/31 00:28:39;;;;;;;8.32;3.47;;;11.00;99.90;;;;;;5036765;28;20115;-82
2023/10/31 00:31:11;;;;;;;7.97;3.55;;;11.00;99.90;;;;;;5054649;28;20045;-82
2023/10/31 00:33:38;;;;;;;11.05;3.85;;;11.00;99.90;;;;;;5021182;28;20037;-82
2023/10/31 00:36:05;;;;;;;8.57;4.07;;;11.00;99.90;;;;;;5038693;28;20111;-82
2023/10/31 00:38:31;;;;;;;11.10;4.43;;;11.00;99.90;;;;;;5055771;28;20032;-82
2023/10/31 00:40:58;;;;;;;8.85;4.32;;;10.90;99.90;;;;;;5055820;28;20037;-82
2023/10/31 00:43:24;;;;;;;9.15;4.05;;;11.10;99.90;;;;;;5055758;28;20045;-82
2023/10/31 00:45:51;;;;;;;7.80;4.38;;;10.90;99.90;;;;;;5055744;28;20128;-82
2023/10/31 00:48:19;;;;;;;11.88;5.30;;;10.90;99.90;;;;;;5061679;28;20863;-82
2023/10/31 00:50:45;;;;;;;9.98;4.88;;;10.90;99.90;;;;;;5048979;28;20099;-82
2023/10/31 00:53:14;;;;;;;9.07;4.32;;;10.90;99.90;;;;;;5047016;28;20041;-82
2023/10/31 00:55:40;;;;;;;12.45;4.60;;;10.90;99.90;;;;;;5050692;28;20044;-82
2023/10/31 00:58:07;;;;;;;9.68;4.15;;;11.20;99.90;;;;;;5064473;28;20041;-82
2023/10/31 01:00:34;;;;;;;10.55;4.00;;;10.80;99.90;;;;;;5055511;28;20107;-83
2023/10/31 01:03:00;;;;;;;9.13;3.45;;;10.80;99.90;;;;;;5055761;28;20040;-82
2023/10/31 01:05:28;;;;;;;10.20;3.03;;;10.90;99.90;;;;;;5048665;28;20042;-82
2023/10/31 01:07:55;;;;;;;7.30;2.45;;;10.80;99.90;;;;;;5062739;28;20045;-82
2023/10/31 01:10:22;;;;;;;5.15;1.90;;;10.80;99.90;;;;;;5052012;28;20061;-83
2023/10/31 01:12:49;;;;;;;9.52;2.10;;;10.70;99.90;;;;;;5055731;28;20510;-83
2023/10/31 01:15:15;;;;;;;5.03;1.60;;;10.70;99.90;;;;;;5052317;28;20128;-83
2023/10/31 01:17:42;;;;;;;10.25;1.95;;;10.60;99.90;;;;;;5068598;28;20088;-83
2023/10/31 01:20:10;;;;;;;6.53;1.83;;;10.60;99.90;;;;;;5045655;28;20488;-83
2023/10/31 01:22:36;;;;;;;6.97;1.90;;;10.60;99.90;;;;;;5046791;28;20048;-82
2023/10/31 01:25:03;;;;;;;7.07;2.17;;;10.80;99.90;;;;;;5054110;28;20045;-82
2023/10/31 01:27:30;;;;;;;6.32;1.60;;;10.60;99.90;;;;;;5068210;28;20076;-82
2023/10/31 01:29:57;;;;;;;7.25;1.80;;;10.60;99.90;;;;;;5053506;28;20080;-82
2023/10/31 01:32:23;;;;;;;6.63;1.70;;;10.70;99.90;;;;;;5039718;28;20104;-83
2023/10/31 01:34:50;;;;;;;5.63;2.03;;;10.60;99.90;;;;;;5050923;28;20831;-82
2023/10/31 01:37:19;;;;;;;5.45;1.85;;;10.50;99.90;;;;;;5051699;28;20099;-82
2023/10/31 01:39:45;;;;;;;8.85;2.20;;;10.50;99.90;;;;;;5051470;28;20041;-83
2023/10/31 01:42:17;;;;;;;4.75;2.10;;;10.50;99.90;;;;;;5054985;28;20052;-82
2023/10/31 01:44:44;;;;;;;6.47;2.38;;;10.50;99.90;;;;;;5049887;28;20418;-83
2023/10/31 01:47:11;;;;;;;6.47;1.73;;;10.50;99.90;;;;;;5058010;28;20049;-82
2023/10/31 01:49:38;;;;;;;9.13;1.95;;;10.60;99.90;;;;;;5059571;28;20038;-83
2023/10/31 01:52:06;;;;;;;4.32;1.70;;;10.90;99.90;;;;;;5048838;28;20080;-83
2023/10/31 01:54:33;;;;;;;4.57;1.92;;;10.40;99.90;;;;;;5051242;28;20033;-83
2023/10/31 01:57:02;;;;;;;5.53;2.05;;;10.40;99.90;;;;;;5052536;28;20080;-83
2023/10/31 01:59:29;;;;;;;4.03;2.28;;;10.40;99.90;;;;;;5041100;28;20065;-82
2023/10/31 02:01:57;;;;;;;6.03;2.58;;;10.40;99.90;;;;;;5060710;28;20050;-83
2023/10/31 02:04:24;;;;;;;4.15;2.20;;;10.50;99.90;;;;;;5034855;28;20124;-82
2023/10/31 02:06:50;;;;;;;4.13;1.73;;;10.40;99.90;;;;;;5050958;28;20037;-83
2023/10/31 02:09:17;;;;;;;4.40;1.50;;;10.40;99.90;;;;;;5049316;28;20046;-82
2023/10/31 02:11:44;;;;;;;2.83;1.33;;;10.40;99.90;;;;;;5042685;28;20064;-83
2023/10/31 02:14:10;;;;;;;1.95;1.00;;;10.40;99.90;;;;;;5044549;28;20492;-83
2023/10/31 02:16:37;;;;;;;3.58;1.20;;;10.40;99.90;;;;;;5046071;28;20029;-83
2023/10/31 02:19:06;;;;;;;3.53;0.90;;;10.40;99.90;;;;;;5037393;28;20443;-83
2023/10/31 02:21:32;;;;;;;2.78;1.00;;;10.30;99.90;;;;;;5054182;28;20046;-83
2023/10/31 02:24:01;;;;;;;5.32;1.10;;;10.50;99.90;;;;;;5045298;28;20458;-83
2023/10/31 02:26:32;;;;;;;4.60;1.30;;;10.60;99.90;;;;;;5044778;28;20033;-83
2023/10/31 02:28:59;;;;;;;2.35;1.02;;;10.40;99.90;;;;;;5050618;28;20037;-82
2023/10/31 02:31:26;;;;;;;5.18;1.00;;;10.30;99.90;;;;;;5040723;28;20073;-82
2023/10/31 02:33:53;;;;;;;5.30;1.15;;;10.40;99.90;;;;;;5046346;28;20034;-83
2023/10/31 02:36:20;;;;;;;2.80;1.10;;;10.60;99.90;;;;;;5024896;28;20519;-82
2023/10/31 02:38:47;;;;;;;2.53;1.00;;;10.20;99.90;;;;;;5058383;28;20041;-82
2023/10/31 02:41:14;;;;;;;2.20;0.88;;;10.30;99.90;;;;;;5040694;28;20443;-82
2023/10/31 02:43:41;;;;;;;4.40;0.90;;;10.30;99.90;;;;;;5058933;28;20041;-83
2023/10/31 02:46:08;;;;;;;2.95;0.90;;;10.20;99.90;;;;;;5053650;28;20411;-82
2023/10/31 02:48:39;;;;;;;3.85;0.80;;;10.20;99.90;;;;;;5045279;28;20042;-82
2023/10/31 02:51:07;;;;;;;2.55;0.75;;;10.60;99.90;;;;;;5037168;28;20517;-82
2023/10/31 02:53:35;;;;;;;4.38;0.90;;;10.20;99.90;;;;;;5044886;28;20037;-82
2023/10/31 02:56:02;;;;;;;3.42;0.60;;;10.20;99.90;;;;;;5050033;28;20044;-82
2023/10/31 02:58:29;;;;;;;2.03;0.80;;;10.20;99.90;;;;;;5043897;28;20071;-82
2023/10/31 03:00:56;;;;;;;1.98;0.80;;;10.20;99.90;;;;;;5049728;28;20057;-82
2023/10/31 03:03:22;;;;;;;3.58;0.73;;;10.20;99.90;;;;;;5043008;28;20083;-82
2023/10/31 03:05:49;;;;;;;3.45;0.90;;;10.20;99.90;;;;;;5053035;28;20034;-82
2023/10/31 03:08:20;;;;;;;2.53;1.10;;;10.00;99.90;;;;;;5036564;28;20045;-83
2023/10/31 03:10:49;;;;;;;4.35;1.00;;;10.10;99.90;;;;;;5040525;28;20063;-82
2023/10/31 03:13:17;;;;;;;3.28;1.00;;;10.10;99.90;;;;;;5026228;28;20033;-82
2023/10/31 03:15:45;;;;;;;3.67;1.05;;;10.10;99.90;;;;;;5029789;28;20546;-83
2023/10/31 03:18:14;;;;;;;6.05;1.30;;;10.70;99.90;;;;;;5039867;28;20068;-82
2023/10/31 03:20:43;;;;;;;3.33;1.13;;;10.00;99.90;;;;;;5036562;28;20033;-82
2023/10/31 03:23:10;;;;;;;9.23;1.20;;;10.10;99.90;;;;;;5049957;28;20037;-82
2023/10/31 03:25:36;;;;;;;5.32;1.02;;;10.00;99.90;;;;;;5040167;28;20561;-82
2023/10/31 03:28:04;;;;;;;5.65;1.30;;;10.00;99.90;;;;;;5038598;28;20053;-82
2023/10/31 03:30:31;;;;;;;6.95;1.48;;;10.30;99.90;;;;;;5059295;28;20553;-82
2023/10/31 03:32:58;;;;;;;2.15;0.90;;;10.10;99.90;;;;;;5049214;28;20045;-82
2023/10/31 03:35:24;;;;;;;4.07;1.17;;;10.20;99.90;;;;;;5033141;28;20042;-82
2023/10/31 03:37:51;;;;;;;5.63;1.08;;;10.10;99.90;;;;;;5032640;28;20042;-82
2023/10/31 03:40:17;;;;;;;4.47;1.08;;;10.00;99.90;;;;;;5032684;28;20040;-82
2023/10/31 03:42:44;;;;;;;5.72;1.30;;;10.00;99.90;;;;;;5036279;28;20919;-82
2023/10/31 03:45:11;;;;;;;5.90;1.13;;;9.90;99.90;;;;;;5039536;28;20046;-82
2023/10/31 03:47:38;;;;;;;3.45;1.10;;;9.90;99.90;;;;;;5046517;28;20515;-82
2023/10/31 03:50:06;;;;;;;6.75;1.40;;;10.00;99.90;;;;;;5053333;28;20049;-82
2023/10/31 03:52:32;;;;;;;4.13;1.25;;;10.00;99.90;;;;;;5064401;28;20041;-82
2023/10/31 03:54:59;;;;;;;6.80;1.30;;;10.00;99.90;;;;;;5053630;28;20125;-82
2023/10/31 03:57:25;;;;;;;4.53;1.08;;;10.20;99.90;;;;;;5039472;28;20064;-82
2023/10/31 03:59:52;;;;;;;4.35;0.95;;;10.00;99.90;;;;;;5044988;28;20404;-83
2023/10/31 04:02:19;;;;;;;4.10;1.20;;;10.00;99.90;;;;;;5050622;28;20439;-84
2023/10/31 04:04:45;;;;;;;5.00;1.30;;;10.00;99.90;;;;;;5048101;28;20468;-81
2023/10/31 04:07:12;;;;;;;6.85;1.48;;;10.10;99.90;;;;;;5040220;28;20045;-81
2023/10/31 04:09:39;;;;;;;3.35;1.42;;;10.00;99.90;;;;;;5046843;28;20037;-80
2023/10/31 04:12:06;;;;;;;5.25;1.20;;;10.00;99.90;;;;;;5041057;28;20034;-81
2023/10/31 04:14:34;;;;;;;5.05;1.42;;;10.00;99.90;;;;;;5028345;28;20177;-80
2023/10/31 04:17:01;;;;;;;3.10;1.40;;;10.00;99.90;;;;;;5044554;28;20025;-80
2023/10/31 04:19:27;;;;;;;5.57;1.60;;;10.00;99.90;;;;;;5058318;28;20107;-81
2023/10/31 04:21:54;;;;;;;4.63;1.40;;;10.10;99.90;;;;;;5041658;28;20124;-81
2023/10/31 04:24:21;;;;;;;5.38;1.60;;;10.00;99.90;;;;;;5055597;28;20050;-81
2023/10/31 04:26:48;;;;;;;4.65;1.38;;;10.00;99.90;;;;;;5045680;28;20049;-81
2023/10/31 04:29:14;;;;;;;5.93;2.00;;;10.00;99.90;;;;;;5055068;28;20038;-80
2023/10/31 04:31:41;;;;;;;5.07;1.88;;;9.90;99.90;;;;;;5039814;28;20049;-81
2023/10/31 04:34:08;;;;;;;4.93;2.05;;;10.20;99.90;;;;;;5061934;28;20037;-80
2023/10/31 04:36:34;;;;;;;4.50;1.80;;;9.90;99.90;;;;;;5034726;28;20041;-81
2023/10/31 04:39:01;;;;;;;4.85;2.03;;;10.00;99.90;;;;;;5039629;28;20507;-81
2023/10/31 04:41:28;;;;;;;7.13;2.28;;;10.00;99.90;;;;;;5046435;28;20111;-80
2023/10/31 04:43:55;;;;;;;6.30;2.00;;;10.00;99.90;;;;;;5068062;28;20041;-81
2023/10/31 04:46:22;;;;;;;5.82;2.40;;;10.30;99.90;;;;;;5030617;28;20045;-81
2023/10/31 04:48:48;;;;;;;4.95;2.13;;;9.90;99.90;;;;;;5034438;28;20141;-80
2023/10/31 04:51:15;;;;;;;5.38;2.40;;;9.90;99.90;;;;;;5044564;28;20045;-81
2023/10/31 04:53:42;;;;;;;4.65;2.20;;;9.90;99.90;;;;;;5039575;28;20117;-81
2023/10/31 04:56:15;;;;;;;5.90;2.38;;;9.90;99.90;;;;;;5051768;28;20034;-81
2023/10/31 04:58:42;;;;;;;6.88;2.70;;;10.00;99.90;;;;;;5047587;28;20038;-81
2023/10/31 05:01:13;;;;;;;3.92;2.05;;;10.00;99.90;;;;;;5042960;28;20139;-81
2023/10/31 05:03:40;;;;;;;6.50;2.42;;;10.00;99.90;;;;;;5043160;28;20054;-81
2023/10/31 05:06:07;;;;;;;8.40;2.38;;;10.00;99.90;;;;;;5044095;28;20067;-81
2023/10/31 05:08:33;;;;;;;5.47;2.20;;;10.00;99.90;;;;;;5046936;28;20099;-81
2023/10/31 05:11:00;;;;;;;6.70;2.50;;;10.00;99.90;;;;;;5051775;28;20076;-81
2023/10/31 05:13:27;;;;;;;7.68;1.92;;;10.10;99.90;;;;;;5033163;28;20041;-81
2023/10/31 05:15:54;;;;;;;5.78;1.80;;;10.00;99.90;;;;;;5038746;28;20472;-81
2023/10/31 05:18:20;;;;;;;4.50;1.98;;;10.00;99.90;;;;;;5053735;28;20038;-81
2023/10/31 05:20:47;;;;;;;8.13;1.88;;;10.00;99.90;;;;;;5033336;28;20049;-81
2023/10/31 05:23:14;;;;;;;6.10;1.83;;;10.00;99.90;;;;;;5035670;28;20049;-81
2023/10/31 05:25:40;;;;;;;5.88;1.80;;;10.00;99.90;;;;;;5046985;28;20076;-81
2023/10/31 05:28:07;;;;;;;4.93;1.55;;;10.00;99.90;;;;;;5051525;28;20037;-81
2023/10/31 05:30:34;;;;;;;4.95;1.42;;;10.30;99.90;;;;;;5033693;28;20412;-80
2023/10/31 05:33:00;;;;;;;5.47;1.30;;;10.00;99.90;;;;;;5038571;28;20072;-81
2023/10/31 05:35:27;;;;;;;5.60;1.30;;;10.00;99.90;;;;;;5051197;28;20060;-81
2023/10/31 05:37:56;;;;;;;5.72;1.30;;;10.10;99.90;;;;;;5048773;28;20041;-81
2023/10/31 05:40:25;;;;;;;5.05;1.60;;;10.40;99.90;;;;;;5033670;28;20037;-81
2023/10/31 05:42:51;;;;;;;4.20;1.10;;;9.90;99.90;;;;;;5046091;28;20046;-81
2023/10/31 05:45:18;;;;;;;6.22;1.00;;;9.90;99.90;;;;;;5036397;28;20048;-83
2023/10/31 05:47:45;;;;;;;4.68;1.20;;;9.90;99.90;;;;;;5035423;28;20157;-84
2023/10/31 05:50:11;;;;;;;2.67;1.00;;;10.00;99.90;;;;;;5043961;28;20063;-82
2023/10/31 05:52:38;;;;;;;5.38;1.10;;;9.90;99.90;;;;;;5047384;28;20443;-82
2023/10/31 05:55:05;;;;;;;4.30;1.20;;;9.90;99.90;;;;;;5058511;28;20037;-82
2023/10/31 05:57:32;;;;;;;3.00;0.95;;;9.90;99.90;;;;;;5025742;28;20508;-81
2023/10/31 05:59:58;;;;;;;2.70;1.00;;;10.10;99.90;;;;;;5046479;28;20093;-81
2023/10/31 06:02:29;;;;;;;5.03;1.00;;;9.90;99.90;;;;;;5054118;28;20136;-81
2023/10/31 06:04:56;;;;;;;4.70;1.10;;;9.90;99.90;;;;;;5034816;28;20041;-82
2023/10/31 06:07:23;;;;;;;4.78;1.25;;;9.90;99.90;;;;;;5038277;28;20048;-81
2023/10/31 06:09:49;;;;;;;3.88;1.00;;;10.00;99.90;;;;;;5043088;28;20053;-82
2023/10/31 06:12:16;;;;;;;2.85;0.70;;;9.90;99.90;;;;;;5037636;28;20037;-81
2023/10/31 06:14:43;;;;;;;3.55;0.80;;;10.00;99.90;;;;;;5038115;28;20072;-81
2023/10/31 06:17:10;;;;;;;5.03;0.95;;;10.20;99.90;;;;;;5050840;28;20040;-81
2023/10/31 06:19:37;;;;;;;4.18;0.70;;;10.00;99.90;;;;;;5040822;28;20120;-81
2023/10/31 06:22:04;;;;;;;1.55;0.75;;;9.90;99.90;;;;;;5039157;28;20034;-81
2023/10/31 06:24:30;;;;;;;2.28;0.80;;;10.00;99.90;;;;;;5030028;28;20103;-80
2023/10/31 06:26:57;;;;;;;2.42;0.73;;;10.00;99.90;;;;;;5035933;28;20046;-81
2023/10/31 06:29:24;;;;;;;1.20;0.65;;;10.00;99.90;;;;;;5046791;28;20041;-81
2023/10/31 06:31:50;;;;;;;2.60;0.75;;;9.90;99.90;;;;;;5035597;28;20121;-81
2023/10/31 06:34:17;;;;;;;4.57;0.90;;;10.00;99.90;;;;;;5028744;28;20038;-81
2023/10/31 06:36:43;;;;;;;3.45;0.80;;;10.00;99.90;;;;;;5039196;28;20120;-81
2023/10/31 06:39:10;;;;;;;2.75;0.80;;;10.00;99.90;;;;;;5037962;28;20789;-81
2023/10/31 06:41:37;;;;;;;2.20;0.95;;;10.00;99.90;;;;;;5033499;28;20034;-81
2023/10/31 06:44:05;;;;;;;2.20;0.75;;;10.00;99.90;;;;;;5038771;28;20550;-81
2023/10/31 06:46:32;;;;;;;2.80;0.80;;;10.00;99.90;;;;;;5032402;28;20050;-81
2023/10/31 06:48:59;;;;;;;1.88;0.60;;;10.00;99.90;;;;;;5037952;28;20159;-81
2023/10/31 06:51:26;;;;;;;2.38;0.80;;;10.10;99.90;;;;;;5051850;28;20058;-81
2023/10/31 06:53:52;;;;;;;2.38;0.85;;;10.00;99.90;;;;;;5041467;28;20037;-80
2023/10/31 06:56:19;;;;;;;1.27;0.88;;;10.00;99.90;;;;;;5042919;28;20045;-81
2023/10/31 06:58:45;;;;;;;3.38;1.10;;;10.10;99.90;;;;;;5045429;28;20112;-81
2023/10/31 07:01:13;;;;;;;3.70;1.00;;;10.10;99.90;;;;;;5030522;28;20056;-81
2023/10/31 07:03:40;;;;;;;2.47;1.00;;;10.10;99.90;;;;;;5043402;28;20045;-81
2023/10/31 07:06:07;;;;;;;3.90;1.05;;;10.40;99.90;;;;;;5042608;28;20041;-81
2023/10/31 07:08:34;;;;;;;4.82;1.33;;;10.10;99.90;;;;;;5044869;28;20041;-81
2023/10/31 07:11:00;;;;;;;2.90;1.40;;;10.10;99.90;;;;;;5066453;28;20055;-81
2023/10/31 07:13:27;;;;;;;3.00;1.50;;;10.10;99.90;;;;;;5040612;28;20506;-81
2023/10/31 07:15:54;;;;;;;2.78;1.45;;;10.10;99.90;;;;;;5049660;28;20048;-81
2023/10/31 07:18:20;;;;;;;4.97;2.00;;;10.10;99.90;;;;;;5059321;28;20495;-81
2023/10/31 07:20:47;;;;;;;4.95;1.98;;;10.10;99.90;;;;;;5049391;28;20087;-81
2023/10/31 07:23:14;;;;;;;4.15;2.38;;;10.10;99.90;;;;;;5037918;28;20129;-81
2023/10/31 07:25:41;;;;;;;6.95;3.28;;;10.10;99.90;;;;;;5046478;28;20046;-81
2023/10/31 07:28:08;;;;;;;6.10;3.05;;;10.10;99.90;;;;;;5043189;28;20045;-81
2023/10/31 07:30:34;;;;;;;4.55;2.90;;;10.10;99.90;;;;;;5037641;28;20454;-81
2023/10/31 07:33:01;;;;;;;10.52;3.22;;;10.20;99.90;;;;;;5036476;28;20037;-82
2023/10/31 07:35:28;;;;;;;6.32;2.90;;;10.20;99.90;;;;;;5042807;28;20066;-82
2023/10/31 07:37:54;;;;;;;6.43;2.75;;;10.10;99.90;;;;;;5046885;28;20060;-81
2023/10/31 07:40:21;;;;;;;7.05;3.05;;;10.20;99.90;;;;;;5032758;28;20634;-80
2023/10/31 07:42:47;;;;;;;4.57;2.55;;;10.20;99.90;;;;;;5048119;28;20484;-81
2023/10/31 07:45:15;;;;;;;5.25;2.70;;;10.20;99.90;;;;;;5031827;28;20050;-82
2023/10/31 07:47:42;;;;;;;7.70;2.75;;;10.20;99.90;;;;;;5042735;28;20393;-82
2023/10/31 07:50:09;;;;;;;5.47;3.03;;;10.10;99.90;;;;;;5040315;28;20148;-82
2023/10/31 07:52:36;;;;;;;7.07;3.03;;;10.20;99.90;;;;;;5026564;28;20038;-81
2023/10/31 07:55:02;;;;;;;7.03;3.25;;;10.20;99.90;;;;;;5057343;28;20033;-81
2023/10/31 07:57:29;;;;;;;6.25;3.47;;;10.20;99.90;;;;;;5028132;28;20455;-81
2023/10/31 07:59:56;;;;;;;6.10;3.47;;;10.30;99.90;;;;;;5048830;28;20099;-81
2023/10/31 08:02:22;;;;;;;6.88;3.28;;;10.20;99.90;;;;;;5058828;28;20438;-80
2023/10/31 08:04:49;;;;;;;8.98;4.47;;;10.30;99.90;;;;;;5046043;28;20042;-81
2023/10/31 08:07:15;;;;;;;12.18;5.97;;;10.60;99.90;;;;;;5040098;28;20045;-80
2023/10/31 08:09:42;;;;;;;15.55;7.55;;;10.80;99.90;;;;;;5042229;28;20378;-80
2023/10/31 08:12:09;;;;;;;16.73;8.93;;;10.30;99.90;;;;;;5039781;28;20049;-81
2023/10/31 08:14:36;;;;;;;17.15;9.68;;;10.50;99.90;;;;;;5040577;28;20095;-80
2023/10/31 08:17:03;;;;;;;22.33;10.82;;;10.40;99.90;;;;;;5030824;28;20034;-81
2023/10/31 08:19:30;;;;;;;20.70;11.93;;;10.40;99.90;;;;;;5039294;28;20030;-81
2023/10/31 08:21:56;;;;;;;21.05;12.27;;;10.40;99.90;;;;;;5045544;28;20129;-80
2023/10/31 08:24:23;;;;;;;19.27;10.98;;;10.50;99.90;;;;;;5038270;28;20068;-81
2023/10/31 08:26:49;;;;;;;16.08;9.55;;;10.40;99.90;;;;;;5029376;28;20133;-81
2023/10/31 08:29:16;;;;;;;17.17;10.05;;;10.80;99.90;;;;;;5034425;28;20038;-80
2023/10/31 08:31:43;;;;;;;17.63;9.30;;;10.50;99.90;;;;;;5031132;28;20169;-81
2023/10/31 08:34:10;;;;;;;13.20;7.82;;;10.50;99.90;;;;;;5044152;28;20037;-82
2023/10/31 08:36:36;;;;;;;11.50;5.68;;;10.60;99.90;;;;;;5047181;28;20175;-82
2023/10/31 08:39:03;;;;;;;11.02;4.60;;;10.60;99.90;;;;;;5052410;28;20034;-81
2023/10/31 08:41:30;;;;;;;6.15;3.42;;;10.60;99.90;;;;;;5030296;28;20034;-82
2023/10/31 08:43:58;;;;;;;5.78;2.92;;;10.60;99.90;;;;;;5059994;28;20033;-81
2023/10/31 08:46:26;;;;;;;7.35;2.22;;;10.70;99.90;;;;;;5028210;28;20431;-81
2023/10/31 08:48:52;;;;;;;3.30;1.70;;;10.70;99.90;;;;;;5032547;28;20046;-82
2023/10/31 08:51:19;;;;;;;3.88;1.27;;;10.70;99.90;;;;;;5025544;28;20044;-82
2023/10/31 08:53:46;;;;;;;5.40;1.20;;;10.90;99.90;;;;;;5062000;28;20050;-81
2023/10/31 08:56:12;;;;;;;3.88;1.30;;;10.80;99.90;;;;;;5045715;28;20507;-81
2023/10/31 08:58:40;;;;;;;4.85;1.42;;;10.90;99.90;;;;;;5051239;28;20128;-81
2023/10/31 09:01:07;;;;;;;3.70;1.10;;;11.00;99.90;;;;;;5081960;28;20060;-82
2023/10/31 09:03:34;;;;;;;6.07;1.20;;;10.90;99.90;;;;;;5050465;28;20170;-82
2023/10/31 09:06:00;;;;;;;4.43;1.00;;;10.90;99.90;;;;;;5060222;28;20040;-82
2023/10/31 09:08:27;;;;;;;4.10;0.93;;;10.90;99.90;;;;;;5055658;28;20037;-81
2023/10/31 09:10:53;;;;;;;3.80;1.10;;;11.00;99.90;;;;;;5055560;28;20120;-81
2023/10/31 09:13:20;;;;;;;6.30;1.05;;;11.00;99.90;;;;;;5042384;28;20044;-82
2023/10/31 09:15:47;;;;;;;4.63;1.00;;;11.00;99.90;;;;;;5052961;28;20091;-81
2023/10/31 09:18:13;;;;;;;2.50;1.10;;;11.20;99.90;;;;;;5043188;28;20049;-81
2023/10/31 09:20:40;;;;;;;2.40;0.65;;;11.00;99.90;;;;;;5052840;28;20045;-82
2023/10/31 09:23:06;;;;;;;6.82;1.13;;;11.00;99.90;;;;;;5060971;28;20083;-82
2023/10/31 09:25:33;;;;;;;5.10;1.10;;;11.10;99.90;;;;;;5039069;28;20682;-81
2023/10/31 09:28:00;;;;;;;7.05;0.80;;;11.10;99.90;;;;;;5050473;28;20045;-82
2023/10/31 09:30:27;;;;;;;3.42;0.80;;;11.20;99.90;;;;;;5067731;28;20048;-82
2023/10/31 09:32:54;;;;;;;3.80;0.85;;;11.10;99.90;;;;;;5060898;28;20053;-81
2023/10/31 09:35:20;;;;;;;5.97;0.88;;;11.20;99.90;;;;;;5054193;28;20037;-81
2023/10/31 09:37:48;;;;;;;4.80;1.00;;;11.20;99.90;;;;;;5047952;28;20124;-81
2023/10/31 09:40:15;;;;;;;3.00;0.88;;;11.30;99.90;;;;;;5035379;28;20515;-81
2023/10/31 09:42:43;;;;;;;4.55;0.85;;;11.30;99.90;;;;;;5044598;28;20098;-82
2023/10/31 09:45:10;;;;;;;8.02;1.17;;;11.30;99.90;;;;;;5074266;28;20503;-81
2023/10/31 09:47:37;;;;;;;9.75;1.00;;;11.30;99.90;;;;;;5048193;28;20052;-81
2023/10/31 09:50:04;;;;;;;9.23;1.30;;;11.20;99.90;;;;;;5052032;28;20091;-81
2023/10/31 09:52:32;;;;;;;5.60;0.80;;;11.10;99.90;;;;;;5054382;28;20068;-81
2023/10/31 09:54:59;;;;;;;8.23;1.17;;;11.10;99.90;;;;;;5054266;28;20032;-81
2023/10/31 09:57:26;;;;;;;5.95;1.00;;;11.00;99.90;;;;;;5054766;28;20131;-81
2023/10/31 09:59:52;;;;;;;6.45;0.90;;;11.00;99.90;;;;;;5057431;28;20057;-80
2023/10/31 10:02:19;;;;;;;5.88;0.85;;;10.90;99.90;;;;;;5050307;28;20056;-81
2023/10/31 10:04:47;;;;;;;3.22;0.63;;;10.90;99.90;;;;;;5050964;28;20045;-81
2023/10/31 10:07:18;;;;;;;5.15;0.85;;;11.00;99.90;;;;;;5044326;28;20551;-81
2023/10/31 10:09:46;;;;;;;8.18;1.10;;;10.90;99.90;;;;;;5048055;28;20405;-81
2023/10/31 10:12:13;;;;;;;4.20;0.75;;;11.00;99.90;;;;;;5032813;28;20041;-81
2023/10/31 10:14:40;;;;;;;4.50;0.70;;;10.90;99.90;;;;;;5050477;28;20457;-81
2023/10/31 10:17:22;;;;;;;2.88;0.60;;;11.00;99.90;;;;;;5069771;28;20043;-81
2023/10/31 10:20:08;;;;;;;3.88;0.70;;;11.00;99.90;;;;;;5044841;28;20084;-81
2023/10/31 10:22:39;;;;;;;6.57;1.17;;;10.90;99.90;;;;;;5033941;28;20049;-82
2023/10/31 10:25:18;;;;;;;8.73;0.90;;;10.90;99.90;;;;;;5040642;28;20042;-81
2023/10/31 10:27:45;;;;;;;3.25;0.57;;;10.90;99.90;;;;;;5052514;28;20045;-81
2023/10/31 10:30:14;;;;;;;2.72;0.40;;;10.90;99.90;;;;;;5058744;28;20056;-81
2023/10/31 10:32:41;;;;;;;5.93;0.73;;;10.90;99.90;;;;;;5069601;28;20037;-81
2023/10/31 10:35:08;;;;;;;4.50;0.60;;;10.90;99.90;;;;;;5053696;28;20045;-81
2023/10/31 10:37:39;;;;;;;4.80;0.98;;;11.00;99.90;;;;;;5066481;28;20419;-81
2023/10/31 10:40:08;;;;;;;5.35;1.00;;;11.10;99.90;;;;;;5058815;28;20042;-81
2023/10/31 10:43:07;;;;;;;3.83;0.80;;;11.10;99.90;;;;;;5037078;28;20045;-81
2023/10/31 10:45:38;;;;;;;4.18;0.70;;;11.10;99.90;;;;;;5047423;28;20045;-81
2023/10/31 10:48:10;;;;;;;5.30;0.80;;;11.10;99.90;;;;;;5051842;28;21747;-81
2023/10/31 10:50:41;;;;;;;3.75;0.50;;;11.00;99.90;;;;;;5059502;28;20448;-82
2023/10/31 10:53:24;;;;;;;3.75;0.70;;;11.10;99.90;;;;;;5034568;28;20041;-81
2023/10/31 10:55:55;;;;;;;1.48;0.50;;;11.10;99.90;;;;;;5035419;28;20431;-82
2023/10/31 10:58:28;;;;;;;2.70;0.70;;;11.20;99.90;;;;;;5054272;28;20045;-81
2023/10/31 11:00:56;;;;;;;1.23;0.32;;;11.20;99.90;;;;;;5063738;28;20053;-82
2023/10/31 11:03:25;;;;;;;1.10;0.52;;;11.30;99.90;;;;;;5032665;28;20068;-81
2023/10/31 11:05:52;;;;;;;3.42;0.70;;;11.40;99.90;;;;;;5053784;28;20045;-82
2023/10/31 11:08:21;;;;;;;4.13;0.73;;;11.60;99.90;;;;;;5058872;28;20060;-81
2023/10/31 11:10:48;;;;;;;1.70;0.40;;;11.60;99.90;;;;;;5049886;28;20065;-82
2023/10/31 11:13:15;;;;;;;2.17;0.45;;;11.70;99.90;;;;;;5058013;28;20053;-82
2023/10/31 11:15:43;;;;;;;2.25;0.52;;;11.60;99.90;;;;;;5053632;28;20152;-82
2023/10/31 11:18:10;;;;;;;3.65;0.70;;;11.50;99.90;;;;;;5049691;28;20034;-82
2023/10/31 11:20:38;;;;;;;3.17;0.60;;;11.50;99.90;;;;;;5044445;28;20034;-82
2023/10/31 11:23:06;;;;;;;3.15;0.55;;;11.50;99.90;;;;;;5046749;28;20049;-82
2023/10/31 11:25:33;;;;;;;2.58;0.50;;;11.50;99.90;;;;;;5030497;28;20438;-81
2023/10/31 11:28:17;;;;;;;2.05;0.70;;;12.00;99.90;;;;;;5050628;28;20097;-81
2023/10/31 11:30:48;;;;;;;3.05;0.80;;;11.40;99.90;;;;;;5035915;28;20108;-82
2023/10/31 11:33:18;;;;;;;8.23;0.80;;;11.40;99.90;;;;;;5025586;28;20042;-82
2023/10/31 11:36:10;;;;;;;5.95;0.75;;;11.40;99.90;;;;;;5028711;28;20116;-82
2023/10/31 11:38:38;;;;;;;2.35;0.60;;;11.50;99.90;;;;;;5024471;28;20078;-82
2023/10/31 11:41:05;;;;;;;3.97;0.82;;;11.60;99.90;;;;;;5025540;28;20042;-82
2023/10/31 11:43:38;;;;;;;3.17;0.80;;;11.60;99.90;;;;;;5043011;28;20056;-82
2023/10/31 11:46:06;;;;;;;1.15;0.52;;;12.10;99.90;;;;;;5032997;28;20081;-82
2023/10/31 11:48:47;;;;;;;4.25;0.70;;;11.90;99.90;;;;;;5024729;28;20495;-80
2023/10/31 11:51:14;;;;;;;1.90;0.52;;;11.80;99.90;;;;;;5020738;28;20430;-80
2023/10/31 11:53:41;;;;;;;3.65;0.50;;;11.80;99.90;;;;;;5065982;28;20121;-80
2023/10/31 11:56:10;;;;;;;5.68;0.70;;;11.80;99.90;;;;;;5034772;28;20096;-81
2023/10/31 11:58:37;;;;;;;3.13;0.65;;;11.70;99.90;;;;;;5054468;28;20034;-81
2023/10/31 12:01:05;;;;;;;2.78;0.90;;;11.60;99.90;;;;;;5046814;28;20462;-81
2023/10/31 12:03:47;;;;;;;3.78;0.60;;;11.50;99.90;;;;;;5029708;28;20037;-81
2023/10/31 12:06:15;;;;;;;2.35;0.70;;;11.30;99.90;;;;;;5047694;28;20037;-81
2023/10/31 12:08:43;;;;;;;3.47;0.75;;;11.50;99.90;;;;;;5044770;28;20510;-81
2023/10/31 12:11:21;;;;;;;3.95;0.70;;;11.40;99.90;;;;;;5041732;28;20064;-80
2023/10/31 12:13:57;;;;;;;4.35;0.85;;;11.40;99.90;;;;;;5034372;28;20030;-81
2023/10/31 12:16:34;;;;;;;2.85;0.80;;;11.60;99.90;;;;;;5043840;28;20041;-81
2023/10/31 12:19:05;;;;;;;8.15;1.15;;;11.60;99.90;;;;;;5036172;28;20038;-81
2023/10/31 12:21:39;;;;;;;4.43;0.98;;;12.00;99.90;;;;;;5041211;28;20136;-81
2023/10/31 12:24:08;;;;;;;7.75;0.70;;;11.50;99.90;;;;;;5055898;28;20042;-81
2023/10/31 12:26:35;;;;;;;4.93;0.70;;;11.40;99.90;;;;;;5031341;28;20053;-81
2023/10/31 12:29:19;;;;;;;8.25;1.10;;;11.90;99.90;;;;;;5038836;28;20045;-81
2023/10/31 12:31:50;;;;;;;3.88;0.80;;;11.40;99.90;;;;;;5051251;28;20132;-81
2023/10/31 12:34:21;;;;;;;7.30;1.38;;;11.30;99.90;;;;;;5067557;28;20041;-81
2023/10/31 12:36:50;;;;;;;7.10;1.10;;;11.30;99.90;;;;;;5059333;28;20074;-81
2023/10/31 12:39:20;;;;;;;3.78;0.80;;;11.40;99.90;;;;;;5036630;28;20132;-80
2023/10/31 12:41:47;;;;;;;6.60;0.98;;;11.10;99.90;;;;;;5047291;28;20129;-80
2023/10/31 12:44:21;;;;;;;5.30;1.00;;;11.20;99.90;;;;;;5039921;28;20041;-81
2023/10/31 12:46:47;;;;;;;6.75;1.38;;;11.20;99.90;;;;;;5067414;28;20041;-81
2023/10/31 12:49:18;;;;;;;4.30;0.80;;;11.20;99.90;;;;;;5043028;28;20063;-81